TKPK

Details ICAO TKPK (SKB)
Name St. Kitts/Bradshaw Intl
Region Saint Kitts and Nevis
Timezone America/St_Kitts (UTC-4.0)
Plans Departing 135
Arriving 201
Stats Elevation 169 ft / 52 m (AMSL)
Location 17.311200° -62.718700°
Runways 1
Magnetic Variation 14.475° W
Sunrise 2018-10-18 10:05:46 UTC / 2018-10-18 06:05:46 Local
Sunset 2018-10-18 21:48:33 UTC / 2018-10-18 17:48:33 Local
Advertisement - Login to hide

Runways

ID Width Length Bearing (true/mag) Surface Threshold Overrun Markings Lighting
07 148 ft / 45 m 7,620 ft / 2,323 m 56.95° / 71.42° ASPHALT 200 ft / 61 m 0 ft / 0 m APP EDGE THRESHOLD
25 148 ft / 45 m 7,620 ft / 2,323 m 236.95° / 251.42° ASPHALT 0 ft / 0 m 0 ft / 0 m APP EDGE THRESHOLD REIL-OMNI

Map

Weather


0- 5 10 15 20 25 30 35+ Temperature / °C

Clouds and Precipitation
Forecast for 2018-10-19 00:00 UTC. Updated 5 hours ago

Ground ~20,000 ft ~40,000 ft Winds

METAR

TKPK 190200Z 05013KT 9999 FEW020 27/23 Q1015

TAF

TAF TKPK 182346Z 1900/1924 06010KT P6SM -RA FEW018 SCT040 FM190200 05008KT P6SM VCSH SCT018 BKN035 FM191430 06012KT P6SM SCT022 AMD NOT SKED TIL 191100

Frequencies

Ground 121.90 MHz
Approach 119.60 MHz
Tower 118.30 MHz
Warning: Do not use this data for real-world aviation or navigation. No guarantee of current accuracy is given.